sensor_id;sensor_type;location;lat;lon;timestamp;P1;durP1;ratioP1;P2;durP2;ratioP2
51985;SDS011;38002;53.296;6.600;2022-09-20T00:04:38;4.50;;;0.98;;
51985;SDS011;38002;53.296;6.600;2022-09-20T00:09:39;4.03;;;0.95;;
51985;SDS011;38002;53.296;6.600;2022-09-20T00:14:40;4.93;;;1.02;;
51985;SDS011;38002;53.296;6.600;2022-09-20T00:19:40;7.25;;;1.60;;
51985;SDS011;38002;53.296;6.600;2022-09-20T00:24:40;11.88;;;1.00;;
51985;SDS011;38002;53.296;6.600;2022-09-20T00:29:41;7.03;;;1.30;;
51985;SDS011;38002;53.296;6.600;2022-09-20T00:34:42;1.73;;;0.80;;
51985;SDS011;38002;53.296;6.600;2022-09-20T00:40:02;4.70;;;0.90;;
51985;SDS011;38002;53.296;6.600;2022-09-20T00:45:04;8.52;;;1.08;;
51985;SDS011;38002;53.296;6.600;2022-09-20T00:50:17;5.20;;;0.88;;
51985;SDS011;38002;53.296;6.600;2022-09-20T00:55:29;6.63;;;1.05;;
51985;SDS011;38002;53.296;6.600;2022-09-20T01:00:31;2.67;;;0.87;;
51985;SDS011;38002;53.296;6.600;2022-09-20T01:05:32;3.83;;;1.10;;
51985;SDS011;38002;53.296;6.600;2022-09-20T01:10:33;5.68;;;1.25;;
51985;SDS011;38002;53.296;6.600;2022-09-20T01:15:34;3.88;;;1.15;;
51985;SDS011;38002;53.296;6.600;2022-09-20T01:20:38;3.42;;;0.90;;
51985;SDS011;38002;53.296;6.600;2022-09-20T01:31:15;2.78;;;0.93;;
51985;SDS011;38002;53.296;6.600;2022-09-20T01:36:25;5.70;;;1.17;;
51985;SDS011;38002;53.296;6.600;2022-09-20T02:03:40;2.60;;;0.98;;
51985;SDS011;38002;53.296;6.600;2022-09-20T02:30:59;3.05;;;1.17;;
51985;SDS011;38002;53.296;6.600;2022-09-20T02:41:35;4.07;;;0.88;;
51985;SDS011;38002;53.296;6.600;2022-09-20T02:47:18;1.90;;;1.33;;
51985;SDS011;38002;53.296;6.600;2022-09-20T03:03:42;4.88;;;1.38;;
51985;SDS011;38002;53.296;6.600;2022-09-20T03:09:07;5.17;;;0.80;;
51985;SDS011;38002;53.296;6.600;2022-09-20T03:14:18;1.48;;;0.80;;
51985;SDS011;38002;53.296;6.600;2022-09-20T03:19:31;5.10;;;1.30;;
51985;SDS011;38002;53.296;6.600;2022-09-20T03:35:49;1.88;;;1.30;;
51985;SDS011;38002;53.296;6.600;2022-09-20T04:28:45;2.35;;;1.58;;
51985;SDS011;38002;53.296;6.600;2022-09-20T05:00:05;6.03;;;1.52;;
51985;SDS011;38002;53.296;6.600;2022-09-20T05:16:20;6.00;;;1.17;;
51985;SDS011;38002;53.296;6.600;2022-09-20T05:38:04;2.83;;;1.40;;
51985;SDS011;38002;53.296;6.600;2022-09-20T05:43:26;2.50;;;1.25;;
51985;SDS011;38002;53.296;6.600;2022-09-20T05:48:39;3.25;;;1.58;;
51985;SDS011;38002;53.296;6.600;2022-09-20T05:59:40;3.90;;;1.05;;
51985;SDS011;38002;53.296;6.600;2022-09-20T06:16:06;6.82;;;1.60;;
51985;SDS011;38002;53.296;6.600;2022-09-20T06:21:29;6.22;;;1.65;;
51985;SDS011;38002;53.296;6.600;2022-09-20T06:31:35;6.20;;;2.08;;
51985;SDS011;38002;53.296;6.600;2022-09-20T06:36:37;3.45;;;1.23;;
51985;SDS011;38002;53.296;6.600;2022-09-20T06:42:01;4.82;;;1.17;;
51985;SDS011;38002;53.296;6.600;2022-09-20T06:47:02;1.58;;;0.80;;
51985;SDS011;38002;53.296;6.600;2022-09-20T06:52:05;3.25;;;1.42;;
51985;SDS011;38002;53.296;6.600;2022-09-20T06:57:08;1.77;;;0.60;;
51985;SDS011;38002;53.296;6.600;2022-09-20T07:02:13;0.73;;;0.60;;
51985;SDS011;38002;53.296;6.600;2022-09-20T07:07:17;1.52;;;0.70;;
51985;SDS011;38002;53.296;6.600;2022-09-20T07:12:18;14.02;;;1.10;;
51985;SDS011;38002;53.296;6.600;2022-09-20T07:17:18;4.85;;;1.05;;
51985;SDS011;38002;53.296;6.600;2022-09-20T07:22:19;3.85;;;1.13;;
51985;SDS011;38002;53.296;6.600;2022-09-20T07:27:19;7.80;;;1.63;;
51985;SDS011;38002;53.296;6.600;2022-09-20T07:32:20;2.90;;;0.77;;
51985;SDS011;38002;53.296;6.600;2022-09-20T07:37:21;2.90;;;0.70;;
51985;SDS011;38002;53.296;6.600;2022-09-20T07:42:22;4.38;;;1.00;;
51985;SDS011;38002;53.296;6.600;2022-09-20T07:47:22;2.25;;;0.80;;
51985;SDS011;38002;53.296;6.600;2022-09-20T07:52:26;3.58;;;0.90;;
51985;SDS011;38002;53.296;6.600;2022-09-20T07:57:26;2.78;;;0.70;;
51985;SDS011;38002;53.296;6.600;2022-09-20T08:02:27;5.25;;;1.38;;
51985;SDS011;38002;53.296;6.600;2022-09-20T08:07:27;3.70;;;0.52;;
51985;SDS011;38002;53.296;6.600;2022-09-20T08:12:28;4.88;;;1.05;;
51985;SDS011;38002;53.296;6.600;2022-09-20T08:17:29;2.70;;;0.70;;
51985;SDS011;38002;53.296;6.600;2022-09-20T08:22:31;0.65;;;0.45;;
51985;SDS011;38002;53.296;6.600;2022-09-20T08:32:34;6.13;;;0.80;;
51985;SDS011;38002;53.296;6.600;2022-09-20T08:37:37;4.22;;;1.00;;
51985;SDS011;38002;53.296;6.600;2022-09-20T08:42:38;2.50;;;0.43;;
51985;SDS011;38002;53.296;6.600;2022-09-20T08:47:47;1.10;;;0.50;;
51985;SDS011;38002;53.296;6.600;2022-09-20T08:52:53;0.95;;;0.43;;
51985;SDS011;38002;53.296;6.600;2022-09-20T08:57:56;3.20;;;0.35;;
51985;SDS011;38002;53.296;6.600;2022-09-20T09:02:59;5.00;;;1.13;;
51985;SDS011;38002;53.296;6.600;2022-09-20T09:13:27;3.63;;;0.30;;
51985;SDS011;38002;53.296;6.600;2022-09-20T09:18:32;2.25;;;0.40;;
51985;SDS011;38002;53.296;6.600;2022-09-20T09:29:08;0.95;;;0.45;;
51985;SDS011;38002;53.296;6.600;2022-09-20T09:34:32;3.75;;;0.45;;
51985;SDS011;38002;53.296;6.600;2022-09-20T09:39:35;0.70;;;0.28;;
51985;SDS011;38002;53.296;6.600;2022-09-20T09:44:37;4.18;;;0.85;;
51985;SDS011;38002;53.296;6.600;2022-09-20T09:49:37;2.08;;;0.43;;
51985;SDS011;38002;53.296;6.600;2022-09-20T09:54:58;1.23;;;0.60;;
51985;SDS011;38002;53.296;6.600;2022-09-20T10:05:34;4.25;;;0.68;;
51985;SDS011;38002;53.296;6.600;2022-09-20T10:10:55;5.07;;;0.60;;
51985;SDS011;38002;53.296;6.600;2022-09-20T10:21:50;5.15;;;0.75;;
51985;SDS011;38002;53.296;6.600;2022-09-20T10:27:00;5.72;;;0.80;;
51985;SDS011;38002;53.296;6.600;2022-09-20T10:42:49;4.72;;;0.82;;
51985;SDS011;38002;53.296;6.600;2022-09-20T10:48:16;3.15;;;0.80;;
51985;SDS011;38002;53.296;6.600;2022-09-20T11:04:22;2.42;;;0.80;;
51985;SDS011;38002;53.296;6.600;2022-09-20T11:09:31;2.08;;;0.80;;
51985;SDS011;38002;53.296;6.600;2022-09-20T11:14:40;7.22;;;1.35;;
51985;SDS011;38002;53.296;6.600;2022-09-20T11:20:05;3.53;;;0.80;;
51985;SDS011;38002;53.296;6.600;2022-09-20T11:25:35;1.60;;;0.52;;
51985;SDS011;38002;53.296;6.600;2022-09-20T11:30:48;2.85;;;0.95;;
51985;SDS011;38002;53.296;6.600;2022-09-20T11:35:57;5.55;;;0.77;;
51985;SDS011;38002;53.296;6.600;2022-09-20T11:41:01;3.65;;;0.82;;
51985;SDS011;38002;53.296;6.600;2022-09-20T11:46:08;8.63;;;2.50;;
51985;SDS011;38002;53.296;6.600;2022-09-20T11:56:49;4.47;;;0.57;;
51985;SDS011;38002;53.296;6.600;2022-09-20T12:01:55;3.42;;;0.70;;
51985;SDS011;38002;53.296;6.600;2022-09-20T12:07:04;2.70;;;0.57;;
51985;SDS011;38002;53.296;6.600;2022-09-20T12:28:36;2.33;;;0.63;;
51985;SDS011;38002;53.296;6.600;2022-09-20T12:33:55;1.52;;;0.65;;
51985;SDS011;38002;53.296;6.600;2022-09-20T12:39:12;4.13;;;0.73;;
51985;SDS011;38002;53.296;6.600;2022-09-20T12:55:03;1.25;;;0.50;;
51985;SDS011;38002;53.296;6.600;2022-09-20T13:00:04;2.33;;;1.02;;
51985;SDS011;38002;53.296;6.600;2022-09-20T13:05:29;3.28;;;0.90;;
51985;SDS011;38002;53.296;6.600;2022-09-20T13:10:32;4.15;;;0.63;;
51985;SDS011;38002;53.296;6.600;2022-09-20T13:15:36;1.33;;;0.50;;
51985;SDS011;38002;53.296;6.600;2022-09-20T13:20:38;8.10;;;0.65;;
51985;SDS011;38002;53.296;6.600;2022-09-20T13:25:41;5.82;;;0.80;;
51985;SDS011;38002;53.296;6.600;2022-09-20T13:30:42;2.33;;;0.50;;
51985;SDS011;38002;53.296;6.600;2022-09-20T13:35:44;4.60;;;0.70;;
51985;SDS011;38002;53.296;6.600;2022-09-20T13:40:47;3.05;;;0.65;;
51985;SDS011;38002;53.296;6.600;2022-09-20T13:45:53;0.85;;;0.35;;
51985;SDS011;38002;53.296;6.600;2022-09-20T13:50:56;1.00;;;0.20;;
51985;SDS011;38002;53.296;6.600;2022-09-20T13:55:57;1.38;;;0.40;;
51985;SDS011;38002;53.296;6.600;2022-09-20T14:06:00;7.80;;;0.73;;
51985;SDS011;38002;53.296;6.600;2022-09-20T14:16:15;3.10;;;0.52;;
51985;SDS011;38002;53.296;6.600;2022-09-20T14:21:23;2.08;;;0.40;;
51985;SDS011;38002;53.296;6.600;2022-09-20T14:26:26;2.33;;;0.70;;
51985;SDS011;38002;53.296;6.600;2022-09-20T14:31:30;3.03;;;0.68;;
51985;SDS011;38002;53.296;6.600;2022-09-20T14:36:33;3.13;;;0.70;;
51985;SDS011;38002;53.296;6.600;2022-09-20T14:41:38;2.57;;;0.40;;
51985;SDS011;38002;53.296;6.600;2022-09-20T14:46:40;4.55;;;0.73;;
51985;SDS011;38002;53.296;6.600;2022-09-20T14:51:40;3.37;;;0.57;;
51985;SDS011;38002;53.296;6.600;2022-09-20T14:56:46;2.87;;;0.57;;
51985;SDS011;38002;53.296;6.600;2022-09-20T15:07:07;2.40;;;0.47;;
51985;SDS011;38002;53.296;6.600;2022-09-20T15:12:16;2.72;;;0.65;;
51985;SDS011;38002;53.296;6.600;2022-09-20T15:17:19;3.15;;;0.85;;
51985;SDS011;38002;53.296;6.600;2022-09-20T15:22:20;0.93;;;0.40;;
51985;SDS011;38002;53.296;6.600;2022-09-20T15:27:21;3.83;;;0.50;;
51985;SDS011;38002;53.296;6.600;2022-09-20T15:32:21;7.30;;;0.83;;
51985;SDS011;38002;53.296;6.600;2022-09-20T15:37:21;2.85;;;0.65;;
51985;SDS011;38002;53.296;6.600;2022-09-20T15:42:22;3.03;;;0.60;;
51985;SDS011;38002;53.296;6.600;2022-09-20T15:47:22;3.80;;;0.90;;
51985;SDS011;38002;53.296;6.600;2022-09-20T15:52:23;6.10;;;0.50;;
51985;SDS011;38002;53.296;6.600;2022-09-20T15:57:24;3.27;;;0.73;;
51985;SDS011;38002;53.296;6.600;2022-09-20T16:02:26;2.92;;;0.95;;
51985;SDS011;38002;53.296;6.600;2022-09-20T16:12:28;5.23;;;1.07;;
51985;SDS011;38002;53.296;6.600;2022-09-20T16:17:28;2.43;;;0.90;;
51985;SDS011;38002;53.296;6.600;2022-09-20T16:22:47;2.65;;;0.60;;
51985;SDS011;38002;53.296;6.600;2022-09-20T16:27:48;6.20;;;0.83;;
51985;SDS011;38002;53.296;6.600;2022-09-20T16:32:48;5.93;;;0.93;;
51985;SDS011;38002;53.296;6.600;2022-09-20T16:37:49;3.93;;;0.93;;
51985;SDS011;38002;53.296;6.600;2022-09-20T16:42:50;2.13;;;0.68;;
51985;SDS011;38002;53.296;6.600;2022-09-20T16:47:55;5.65;;;1.10;;
51985;SDS011;38002;53.296;6.600;2022-09-20T16:52:57;5.93;;;1.17;;
51985;SDS011;38002;53.296;6.600;2022-09-20T16:57:57;3.47;;;1.00;;
51985;SDS011;38002;53.296;6.600;2022-09-20T17:02:58;2.00;;;0.70;;
51985;SDS011;38002;53.296;6.600;2022-09-20T17:07:58;10.10;;;0.90;;
51985;SDS011;38002;53.296;6.600;2022-09-20T17:12:59;2.07;;;0.70;;
51985;SDS011;38002;53.296;6.600;2022-09-20T17:18:00;6.25;;;1.85;;
51985;SDS011;38002;53.296;6.600;2022-09-20T17:23:04;5.00;;;0.65;;
51985;SDS011;38002;53.296;6.600;2022-09-20T17:28:08;4.68;;;1.13;;
51985;SDS011;38002;53.296;6.600;2022-09-20T17:33:08;3.60;;;1.03;;
51985;SDS011;38002;53.296;6.600;2022-09-20T17:38:10;2.53;;;1.15;;
51985;SDS011;38002;53.296;6.600;2022-09-20T17:43:11;5.05;;;1.02;;
51985;SDS011;38002;53.296;6.600;2022-09-20T17:48:11;2.38;;;0.80;;
51985;SDS011;38002;53.296;6.600;2022-09-20T17:53:12;2.55;;;0.93;;
51985;SDS011;38002;53.296;6.600;2022-09-20T17:58:12;1.55;;;1.00;;
51985;SDS011;38002;53.296;6.600;2022-09-20T18:03:13;6.38;;;1.45;;
51985;SDS011;38002;53.296;6.600;2022-09-20T18:08:14;5.70;;;1.90;;
51985;SDS011;38002;53.296;6.600;2022-09-20T18:13:15;6.30;;;1.83;;
51985;SDS011;38002;53.296;6.600;2022-09-20T18:18:16;5.18;;;2.05;;
51985;SDS011;38002;53.296;6.600;2022-09-20T18:23:17;3.53;;;2.15;;
51985;SDS011;38002;53.296;6.600;2022-09-20T18:28:17;5.30;;;2.78;;
51985;SDS011;38002;53.296;6.600;2022-09-20T18:33:18;3.72;;;1.50;;
51985;SDS011;38002;53.296;6.600;2022-09-20T18:38:18;4.72;;;1.85;;
51985;SDS011;38002;53.296;6.600;2022-09-20T18:43:19;4.80;;;1.37;;
51985;SDS011;38002;53.296;6.600;2022-09-20T18:48:20;3.80;;;1.33;;
51985;SDS011;38002;53.296;6.600;2022-09-20T18:53:23;5.90;;;1.30;;
51985;SDS011;38002;53.296;6.600;2022-09-20T18:58:39;4.38;;;1.67;;
51985;SDS011;38002;53.296;6.600;2022-09-20T19:09:23;2.80;;;2.03;;
51985;SDS011;38002;53.296;6.600;2022-09-20T19:14:56;8.75;;;2.55;;
51985;SDS011;38002;53.296;6.600;2022-09-20T19:20:08;5.28;;;1.95;;
51985;SDS011;38002;53.296;6.600;2022-09-20T19:30:19;2.63;;;2.08;;
51985;SDS011;38002;53.296;6.600;2022-09-20T19:35:24;6.65;;;2.92;;
51985;SDS011;38002;53.296;6.600;2022-09-20T19:40:41;5.30;;;2.40;;
51985;SDS011;38002;53.296;6.600;2022-09-20T19:51:10;4.90;;;1.65;;
51985;SDS011;38002;53.296;6.600;2022-09-20T19:56:16;4.17;;;1.60;;
51985;SDS011;38002;53.296;6.600;2022-09-20T20:01:24;2.88;;;1.75;;
51985;SDS011;38002;53.296;6.600;2022-09-20T20:27:36;5.65;;;1.92;;
51985;SDS011;38002;53.296;6.600;2022-09-20T20:32:37;5.00;;;1.85;;
51985;SDS011;38002;53.296;6.600;2022-09-20T20:37:38;7.88;;;1.83;;
51985;SDS011;38002;53.296;6.600;2022-09-20T20:42:38;6.47;;;1.95;;
51985;SDS011;38002;53.296;6.600;2022-09-20T20:47:40;5.28;;;1.92;;
51985;SDS011;38002;53.296;6.600;2022-09-20T20:52:41;4.53;;;1.73;;
51985;SDS011;38002;53.296;6.600;2022-09-20T20:57:42;4.20;;;1.90;;
51985;SDS011;38002;53.296;6.600;2022-09-20T21:02:42;4.15;;;1.92;;
51985;SDS011;38002;53.296;6.600;2022-09-20T21:07:43;6.10;;;2.27;;
51985;SDS011;38002;53.296;6.600;2022-09-20T21:12:44;3.88;;;1.73;;
51985;SDS011;38002;53.296;6.600;2022-09-20T21:17:49;3.60;;;1.60;;
51985;SDS011;38002;53.296;6.600;2022-09-20T21:22:54;4.95;;;2.00;;
51985;SDS011;38002;53.296;6.600;2022-09-20T21:27:55;2.45;;;1.52;;
51985;SDS011;38002;53.296;6.600;2022-09-20T21:32:58;1.75;;;1.48;;
51985;SDS011;38002;53.296;6.600;2022-09-20T21:38:05;4.75;;;1.88;;
51985;SDS011;38002;53.296;6.600;2022-09-20T21:43:05;7.32;;;1.52;;
51985;SDS011;38002;53.296;6.600;2022-09-20T21:48:06;2.13;;;1.83;;
51985;SDS011;38002;53.296;6.600;2022-09-20T21:53:07;5.25;;;1.67;;
51985;SDS011;38002;53.296;6.600;2022-09-20T21:58:07;3.78;;;2.00;;
51985;SDS011;38002;53.296;6.600;2022-09-20T22:03:08;2.65;;;1.70;;
51985;SDS011;38002;53.296;6.600;2022-09-20T22:08:08;1.77;;;1.30;;
51985;SDS011;38002;53.296;6.600;2022-09-20T22:13:09;3.97;;;1.60;;
51985;SDS011;38002;53.296;6.600;2022-09-20T22:18:10;1.83;;;1.73;;
51985;SDS011;38002;53.296;6.600;2022-09-20T22:23:10;5.03;;;2.30;;
51985;SDS011;38002;53.296;6.600;2022-09-20T22:28:11;4.15;;;1.70;;
51985;SDS011;38002;53.296;6.600;2022-09-20T22:33:11;2.35;;;1.60;;
51985;SDS011;38002;53.296;6.600;2022-09-20T22:38:12;1.85;;;1.50;;
51985;SDS011;38002;53.296;6.600;2022-09-20T22:43:13;1.40;;;1.30;;
51985;SDS011;38002;53.296;6.600;2022-09-20T22:48:13;2.10;;;1.60;;
51985;SDS011;38002;53.296;6.600;2022-09-20T22:53:14;4.32;;;1.90;;
51985;SDS011;38002;53.296;6.600;2022-09-20T22:58:14;3.47;;;1.63;;
51985;SDS011;38002;53.296;6.600;2022-09-20T23:03:15;6.65;;;2.00;;
51985;SDS011;38002;53.296;6.600;2022-09-20T23:08:16;3.90;;;1.42;;
51985;SDS011;38002;53.296;6.600;2022-09-20T23:13:16;1.80;;;1.70;;
51985;SDS011;38002;53.296;6.600;2022-09-20T23:18:18;2.03;;;1.90;;
51985;SDS011;38002;53.296;6.600;2022-09-20T23:23:18;1.95;;;1.73;;
51985;SDS011;38002;53.296;6.600;2022-09-20T23:28:22;2.17;;;1.60;;
51985;SDS011;38002;53.296;6.600;2022-09-20T23:33:26;1.67;;;1.52;;
51985;SDS011;38002;53.296;6.600;2022-09-20T23:38:26;1.77;;;1.58;;
51985;SDS011;38002;53.296;6.600;2022-09-20T23:43:28;1.95;;;1.85;;
51985;SDS011;38002;53.296;6.600;2022-09-20T23:48:28;1.60;;;1.30;;
51985;SDS011;38002;53.296;6.600;2022-09-20T23:53:29;1.83;;;1.65;;
51985;SDS011;38002;53.296;6.600;2022-09-20T23:58:30;4.85;;;1.75;;
